sensor_id;sensor_type;location;lat;lon;timestamp;P1;durP1;ratioP1;P2;durP2;ratioP2
74415;SDS011;62850;42.428;25.618;2024-03-22T00:01:04;4.22;;;1.95;;
74415;SDS011;62850;42.428;25.618;2024-03-22T00:03:29;4.50;;;1.88;;
74415;SDS011;62850;42.428;25.618;2024-03-22T00:05:55;4.25;;;1.90;;
74415;SDS011;62850;42.428;25.618;2024-03-22T00:08:20;5.18;;;1.98;;
74415;SDS011;62850;42.428;25.618;2024-03-22T00:10:46;4.40;;;2.20;;
74415;SDS011;62850;42.428;25.618;2024-03-22T00:13:11;4.55;;;2.05;;
74415;SDS011;62850;42.428;25.618;2024-03-22T00:15:36;3.58;;;1.65;;
74415;SDS011;62850;42.428;25.618;2024-03-22T00:18:02;4.25;;;1.90;;
74415;SDS011;62850;42.428;25.618;2024-03-22T00:20:27;4.82;;;1.75;;
74415;SDS011;62850;42.428;25.618;2024-03-22T00:22:53;4.03;;;1.83;;
74415;SDS011;62850;42.428;25.618;2024-03-22T00:25:18;4.38;;;1.70;;
74415;SDS011;62850;42.428;25.618;2024-03-22T00:27:44;3.50;;;1.40;;
74415;SDS011;62850;42.428;25.618;2024-03-22T00:30:09;3.47;;;1.38;;
74415;SDS011;62850;42.428;25.618;2024-03-22T00:32:35;4.75;;;1.83;;
74415;SDS011;62850;42.428;25.618;2024-03-22T00:35:00;3.50;;;1.48;;
74415;SDS011;62850;42.428;25.618;2024-03-22T00:37:26;3.75;;;1.67;;
74415;SDS011;62850;42.428;25.618;2024-03-22T00:39:51;4.07;;;1.70;;
74415;SDS011;62850;42.428;25.618;2024-03-22T00:42:16;2.92;;;1.48;;
74415;SDS011;62850;42.428;25.618;2024-03-22T00:44:42;3.33;;;1.40;;
74415;SDS011;62850;42.428;25.618;2024-03-22T00:47:07;3.03;;;1.10;;
74415;SDS011;62850;42.428;25.618;2024-03-22T00:49:33;4.15;;;1.73;;
74415;SDS011;62850;42.428;25.618;2024-03-22T00:51:58;4.95;;;1.50;;
74415;SDS011;62850;42.428;25.618;2024-03-22T00:54:24;4.30;;;1.40;;
74415;SDS011;62850;42.428;25.618;2024-03-22T00:56:49;3.03;;;1.40;;
74415;SDS011;62850;42.428;25.618;2024-03-22T00:59:14;3.22;;;1.30;;
74415;SDS011;62850;42.428;25.618;2024-03-22T01:01:40;3.45;;;1.40;;
74415;SDS011;62850;42.428;25.618;2024-03-22T01:04:05;2.90;;;1.15;;
74415;SDS011;62850;42.428;25.618;2024-03-22T01:06:33;3.40;;;1.30;;
74415;SDS011;62850;42.428;25.618;2024-03-22T01:08:59;3.33;;;1.58;;
74415;SDS011;62850;42.428;25.618;2024-03-22T01:11:24;3.25;;;1.33;;
74415;SDS011;62850;42.428;25.618;2024-03-22T01:13:50;3.60;;;1.50;;
74415;SDS011;62850;42.428;25.618;2024-03-22T01:16:15;3.30;;;1.55;;
74415;SDS011;62850;42.428;25.618;2024-03-22T01:18:41;2.42;;;1.17;;
74415;SDS011;62850;42.428;25.618;2024-03-22T01:21:07;3.85;;;1.50;;
74415;SDS011;62850;42.428;25.618;2024-03-22T01:23:32;3.30;;;1.27;;
74415;SDS011;62850;42.428;25.618;2024-03-22T01:25:58;3.03;;;1.35;;
74415;SDS011;62850;42.428;25.618;2024-03-22T01:28:23;3.22;;;1.40;;
74415;SDS011;62850;42.428;25.618;2024-03-22T01:30:49;3.67;;;1.50;;
74415;SDS011;62850;42.428;25.618;2024-03-22T01:33:14;3.35;;;1.42;;
74415;SDS011;62850;42.428;25.618;2024-03-22T01:35:40;5.05;;;1.23;;
74415;SDS011;62850;42.428;25.618;2024-03-22T01:38:05;3.58;;;1.45;;
74415;SDS011;62850;42.428;25.618;2024-03-22T01:40:30;3.63;;;1.63;;
74415;SDS011;62850;42.428;25.618;2024-03-22T01:42:56;3.60;;;1.20;;
74415;SDS011;62850;42.428;25.618;2024-03-22T01:45:22;4.60;;;1.38;;
74415;SDS011;62850;42.428;25.618;2024-03-22T01:47:49;3.47;;;1.48;;
74415;SDS011;62850;42.428;25.618;2024-03-22T01:50:16;3.92;;;1.48;;
74415;SDS011;62850;42.428;25.618;2024-03-22T01:52:41;3.92;;;1.60;;
74415;SDS011;62850;42.428;25.618;2024-03-22T01:55:07;2.90;;;1.30;;
74415;SDS011;62850;42.428;25.618;2024-03-22T01:57:33;3.42;;;1.30;;
74415;SDS011;62850;42.428;25.618;2024-03-22T01:59:59;3.20;;;1.25;;
74415;SDS011;62850;42.428;25.618;2024-03-22T02:02:25;3.00;;;1.33;;
74415;SDS011;62850;42.428;25.618;2024-03-22T02:04:50;3.50;;;1.60;;
74415;SDS011;62850;42.428;25.618;2024-03-22T02:07:16;3.20;;;1.30;;
74415;SDS011;62850;42.428;25.618;2024-03-22T02:09:42;4.68;;;1.45;;
74415;SDS011;62850;42.428;25.618;2024-03-22T02:12:08;3.58;;;1.60;;
74415;SDS011;62850;42.428;25.618;2024-03-22T02:14:34;4.07;;;1.90;;
74415;SDS011;62850;42.428;25.618;2024-03-22T02:16:59;3.78;;;1.40;;
74415;SDS011;62850;42.428;25.618;2024-03-22T02:19:25;3.70;;;1.42;;
74415;SDS011;62850;42.428;25.618;2024-03-22T02:21:50;3.50;;;1.50;;
74415;SDS011;62850;42.428;25.618;2024-03-22T02:24:15;3.55;;;1.38;;
74415;SDS011;62850;42.428;25.618;2024-03-22T02:26:41;3.15;;;1.42;;
74415;SDS011;62850;42.428;25.618;2024-03-22T02:29:06;3.28;;;1.45;;
74415;SDS011;62850;42.428;25.618;2024-03-22T02:31:32;2.75;;;1.30;;
74415;SDS011;62850;42.428;25.618;2024-03-22T02:33:57;3.03;;;1.30;;
74415;SDS011;62850;42.428;25.618;2024-03-22T02:36:23;3.70;;;1.40;;
74415;SDS011;62850;42.428;25.618;2024-03-22T02:38:48;3.83;;;1.50;;
74415;SDS011;62850;42.428;25.618;2024-03-22T02:41:14;3.33;;;1.40;;
74415;SDS011;62850;42.428;25.618;2024-03-22T02:43:39;3.72;;;1.63;;
74415;SDS011;62850;42.428;25.618;2024-03-22T02:46:05;3.28;;;1.52;;
74415;SDS011;62850;42.428;25.618;2024-03-22T02:48:30;3.63;;;1.50;;
74415;SDS011;62850;42.428;25.618;2024-03-22T02:50:56;3.78;;;1.58;;
74415;SDS011;62850;42.428;25.618;2024-03-22T02:53:22;4.18;;;1.63;;
74415;SDS011;62850;42.428;25.618;2024-03-22T02:55:48;4.90;;;1.73;;
74415;SDS011;62850;42.428;25.618;2024-03-22T02:58:13;3.47;;;1.50;;
74415;SDS011;62850;42.428;25.618;2024-03-22T03:00:41;3.83;;;1.77;;
74415;SDS011;62850;42.428;25.618;2024-03-22T03:03:06;4.00;;;1.70;;
74415;SDS011;62850;42.428;25.618;2024-03-22T03:05:32;4.43;;;1.50;;
74415;SDS011;62850;42.428;25.618;2024-03-22T03:07:58;3.95;;;1.55;;
74415;SDS011;62850;42.428;25.618;2024-03-22T03:10:23;3.88;;;1.55;;
74415;SDS011;62850;42.428;25.618;2024-03-22T03:12:49;3.60;;;1.65;;
74415;SDS011;62850;42.428;25.618;2024-03-22T03:15:15;5.50;;;1.67;;
74415;SDS011;62850;42.428;25.618;2024-03-22T03:17:41;3.42;;;1.70;;
74415;SDS011;62850;42.428;25.618;2024-03-22T03:20:06;2.88;;;1.17;;
74415;SDS011;62850;42.428;25.618;2024-03-22T03:22:33;3.70;;;1.60;;
74415;SDS011;62850;42.428;25.618;2024-03-22T03:25:00;4.22;;;1.70;;
74415;SDS011;62850;42.428;25.618;2024-03-22T03:27:25;2.92;;;1.23;;
74415;SDS011;62850;42.428;25.618;2024-03-22T03:29:51;3.85;;;1.98;;
74415;SDS011;62850;42.428;25.618;2024-03-22T03:32:16;3.40;;;1.48;;
74415;SDS011;62850;42.428;25.618;2024-03-22T03:34:41;4.63;;;1.83;;
74415;SDS011;62850;42.428;25.618;2024-03-22T03:37:07;3.83;;;1.60;;
74415;SDS011;62850;42.428;25.618;2024-03-22T03:39:32;5.47;;;2.03;;
74415;SDS011;62850;42.428;25.618;2024-03-22T03:41:58;5.78;;;1.70;;
74415;SDS011;62850;42.428;25.618;2024-03-22T03:44:23;3.80;;;1.70;;
74415;SDS011;62850;42.428;25.618;2024-03-22T03:46:49;4.05;;;1.90;;
74415;SDS011;62850;42.428;25.618;2024-03-22T03:49:14;4.75;;;1.67;;
74415;SDS011;62850;42.428;25.618;2024-03-22T03:51:40;3.03;;;1.20;;
74415;SDS011;62850;42.428;25.618;2024-03-22T03:54:05;3.47;;;1.15;;
74415;SDS011;62850;42.428;25.618;2024-03-22T03:56:30;4.63;;;1.58;;
74415;SDS011;62850;42.428;25.618;2024-03-22T03:58:56;3.60;;;1.60;;
74415;SDS011;62850;42.428;25.618;2024-03-22T04:01:21;3.17;;;1.60;;
74415;SDS011;62850;42.428;25.618;2024-03-22T04:03:48;4.63;;;1.65;;
74415;SDS011;62850;42.428;25.618;2024-03-22T04:06:13;3.45;;;1.60;;
74415;SDS011;62850;42.428;25.618;2024-03-22T04:08:39;4.57;;;1.90;;
74415;SDS011;62850;42.428;25.618;2024-03-22T04:11:04;5.18;;;1.95;;
74415;SDS011;62850;42.428;25.618;2024-03-22T04:13:30;3.72;;;1.67;;
74415;SDS011;62850;42.428;25.618;2024-03-22T04:15:58;3.30;;;1.48;;
74415;SDS011;62850;42.428;25.618;2024-03-22T04:18:24;4.28;;;1.65;;
74415;SDS011;62850;42.428;25.618;2024-03-22T04:20:56;4.13;;;1.55;;
74415;SDS011;62850;42.428;25.618;2024-03-22T04:23:23;3.88;;;1.70;;
74415;SDS011;62850;42.428;25.618;2024-03-22T04:25:55;3.22;;;1.40;;
74415;SDS011;62850;42.428;25.618;2024-03-22T04:28:22;4.10;;;1.55;;
74415;SDS011;62850;42.428;25.618;2024-03-22T04:33:23;3.58;;;1.40;;
74415;SDS011;62850;42.428;25.618;2024-03-22T04:35:49;3.78;;;1.67;;
74415;SDS011;62850;42.428;25.618;2024-03-22T04:38:15;5.35;;;1.92;;
74415;SDS011;62850;42.428;25.618;2024-03-22T04:40:40;4.05;;;1.75;;
74415;SDS011;62850;42.428;25.618;2024-03-22T04:43:06;4.25;;;1.50;;
74415;SDS011;62850;42.428;25.618;2024-03-22T04:45:31;3.58;;;1.58;;
74415;SDS011;62850;42.428;25.618;2024-03-22T04:47:57;3.80;;;1.80;;
74415;SDS011;62850;42.428;25.618;2024-03-22T04:50:22;4.10;;;1.55;;
74415;SDS011;62850;42.428;25.618;2024-03-22T04:52:48;5.10;;;2.08;;
74415;SDS011;62850;42.428;25.618;2024-03-22T04:55:13;4.40;;;1.77;;
74415;SDS011;62850;42.428;25.618;2024-03-22T04:57:39;3.40;;;1.50;;
74415;SDS011;62850;42.428;25.618;2024-03-22T05:00:04;4.20;;;1.80;;
74415;SDS011;62850;42.428;25.618;2024-03-22T05:02:33;3.80;;;1.88;;
74415;SDS011;62850;42.428;25.618;2024-03-22T05:04:58;5.03;;;2.13;;
74415;SDS011;62850;42.428;25.618;2024-03-22T05:07:24;5.35;;;2.00;;
74415;SDS011;62850;42.428;25.618;2024-03-22T05:09:49;4.47;;;1.73;;
74415;SDS011;62850;42.428;25.618;2024-03-22T05:12:14;4.80;;;1.90;;
74415;SDS011;62850;42.428;25.618;2024-03-22T05:14:40;3.83;;;1.85;;
74415;SDS011;62850;42.428;25.618;2024-03-22T05:17:05;3.47;;;1.58;;
74415;SDS011;62850;42.428;25.618;2024-03-22T05:19:31;3.97;;;1.70;;
74415;SDS011;62850;42.428;25.618;2024-03-22T05:21:56;4.70;;;1.85;;
74415;SDS011;62850;42.428;25.618;2024-03-22T05:24:22;4.65;;;1.83;;
74415;SDS011;62850;42.428;25.618;2024-03-22T05:26:47;4.25;;;1.73;;
74415;SDS011;62850;42.428;25.618;2024-03-22T05:29:12;3.95;;;1.35;;
74415;SDS011;62850;42.428;25.618;2024-03-22T05:31:46;4.05;;;1.90;;
74415;SDS011;62850;42.428;25.618;2024-03-22T05:34:13;4.43;;;1.88;;
74415;SDS011;62850;42.428;25.618;2024-03-22T05:36:39;4.18;;;1.63;;
74415;SDS011;62850;42.428;25.618;2024-03-22T05:39:05;3.55;;;1.80;;
74415;SDS011;62850;42.428;25.618;2024-03-22T05:41:31;3.60;;;1.52;;
74415;SDS011;62850;42.428;25.618;2024-03-22T05:43:56;4.78;;;1.98;;
74415;SDS011;62850;42.428;25.618;2024-03-22T05:46:22;4.38;;;2.45;;
74415;SDS011;62850;42.428;25.618;2024-03-22T05:48:47;5.22;;;1.70;;
74415;SDS011;62850;42.428;25.618;2024-03-22T05:51:15;5.15;;;2.00;;
74415;SDS011;62850;42.428;25.618;2024-03-22T05:53:41;4.43;;;1.77;;
74415;SDS011;62850;42.428;25.618;2024-03-22T05:56:07;3.78;;;1.60;;
74415;SDS011;62850;42.428;25.618;2024-03-22T05:58:33;3.20;;;1.50;;
74415;SDS011;62850;42.428;25.618;2024-03-22T06:00:58;5.72;;;1.70;;
74415;SDS011;62850;42.428;25.618;2024-03-22T06:03:24;4.18;;;1.60;;
74415;SDS011;62850;42.428;25.618;2024-03-22T06:05:49;4.28;;;1.45;;
74415;SDS011;62850;42.428;25.618;2024-03-22T06:08:15;3.53;;;1.38;;
74415;SDS011;62850;42.428;25.618;2024-03-22T06:10:44;3.10;;;1.40;;
74415;SDS011;62850;42.428;25.618;2024-03-22T06:13:10;4.18;;;1.90;;
74415;SDS011;62850;42.428;25.618;2024-03-22T06:15:35;3.25;;;1.30;;
74415;SDS011;62850;42.428;25.618;2024-03-22T06:18:01;3.10;;;1.35;;
74415;SDS011;62850;42.428;25.618;2024-03-22T06:20:26;3.05;;;1.33;;
74415;SDS011;62850;42.428;25.618;2024-03-22T06:22:52;3.40;;;1.45;;
74415;SDS011;62850;42.428;25.618;2024-03-22T06:25:17;3.17;;;1.52;;
74415;SDS011;62850;42.428;25.618;2024-03-22T06:27:43;3.10;;;1.27;;
74415;SDS011;62850;42.428;25.618;2024-03-22T06:30:08;3.25;;;1.27;;
74415;SDS011;62850;42.428;25.618;2024-03-22T06:32:34;3.17;;;1.38;;
74415;SDS011;62850;42.428;25.618;2024-03-22T06:35:00;4.72;;;2.28;;
74415;SDS011;62850;42.428;25.618;2024-03-22T06:37:25;6.15;;;2.90;;
74415;SDS011;62850;42.428;25.618;2024-03-22T06:39:51;9.23;;;3.38;;
74415;SDS011;62850;42.428;25.618;2024-03-22T06:42:16;6.15;;;2.85;;
74415;SDS011;62850;42.428;25.618;2024-03-22T06:44:42;5.53;;;2.40;;
74415;SDS011;62850;42.428;25.618;2024-03-22T06:47:07;6.18;;;2.50;;
74415;SDS011;62850;42.428;25.618;2024-03-22T06:49:33;7.63;;;2.60;;
74415;SDS011;62850;42.428;25.618;2024-03-22T06:51:58;6.10;;;2.92;;
74415;SDS011;62850;42.428;25.618;2024-03-22T06:54:24;7.60;;;2.58;;
74415;SDS011;62850;42.428;25.618;2024-03-22T06:56:51;5.70;;;2.60;;
74415;SDS011;62850;42.428;25.618;2024-03-22T06:59:16;5.70;;;2.97;;
74415;SDS011;62850;42.428;25.618;2024-03-22T07:01:42;7.43;;;3.83;;
74415;SDS011;62850;42.428;25.618;2024-03-22T07:04:07;6.53;;;3.03;;
74415;SDS011;62850;42.428;25.618;2024-03-22T07:06:33;7.97;;;3.50;;
74415;SDS011;62850;42.428;25.618;2024-03-22T07:08:59;6.63;;;3.08;;
74415;SDS011;62850;42.428;25.618;2024-03-22T07:11:24;10.52;;;3.78;;
74415;SDS011;62850;42.428;25.618;2024-03-22T07:13:50;10.43;;;3.40;;
74415;SDS011;62850;42.428;25.618;2024-03-22T07:16:15;6.55;;;2.70;;
74415;SDS011;62850;42.428;25.618;2024-03-22T07:18:41;9.98;;;3.55;;
74415;SDS011;62850;42.428;25.618;2024-03-22T07:21:07;21.02;;;6.72;;
74415;SDS011;62850;42.428;25.618;2024-03-22T07:23:32;24.30;;;8.07;;
74415;SDS011;62850;42.428;25.618;2024-03-22T07:25:57;23.80;;;6.50;;
74415;SDS011;62850;42.428;25.618;2024-03-22T07:28:24;27.67;;;7.97;;
74415;SDS011;62850;42.428;25.618;2024-03-22T07:30:50;10.02;;;4.40;;
74415;SDS011;62850;42.428;25.618;2024-03-22T07:33:15;9.13;;;3.42;;
74415;SDS011;62850;42.428;25.618;2024-03-22T07:35:43;7.18;;;3.00;;
74415;SDS011;62850;42.428;25.618;2024-03-22T07:38:09;6.63;;;3.05;;
74415;SDS011;62850;42.428;25.618;2024-03-22T07:40:35;6.50;;;2.78;;
74415;SDS011;62850;42.428;25.618;2024-03-22T07:43:00;5.45;;;2.80;;
74415;SDS011;62850;42.428;25.618;2024-03-22T07:45:31;5.75;;;2.83;;
74415;SDS011;62850;42.428;25.618;2024-03-22T07:47:57;6.13;;;2.50;;
74415;SDS011;62850;42.428;25.618;2024-03-22T07:50:23;4.78;;;2.30;;
74415;SDS011;62850;42.428;25.618;2024-03-22T07:52:48;5.05;;;2.38;;
74415;SDS011;62850;42.428;25.618;2024-03-22T07:55:14;5.93;;;2.53;;
74415;SDS011;62850;42.428;25.618;2024-03-22T07:57:39;5.40;;;2.72;;
74415;SDS011;62850;42.428;25.618;2024-03-22T08:00:05;4.78;;;2.38;;
74415;SDS011;62850;42.428;25.618;2024-03-22T08:02:32;8.15;;;2.75;;
74415;SDS011;62850;42.428;25.618;2024-03-22T08:04:57;5.85;;;2.55;;
74415;SDS011;62850;42.428;25.618;2024-03-22T08:07:22;6.85;;;2.40;;
74415;SDS011;62850;42.428;25.618;2024-03-22T08:09:48;5.75;;;2.80;;
74415;SDS011;62850;42.428;25.618;2024-03-22T08:12:14;6.25;;;2.90;;
74415;SDS011;62850;42.428;25.618;2024-03-22T08:14:39;7.00;;;3.15;;
74415;SDS011;62850;42.428;25.618;2024-03-22T08:17:04;5.68;;;2.80;;
74415;SDS011;62850;42.428;25.618;2024-03-22T08:19:32;7.28;;;2.72;;
74415;SDS011;62850;42.428;25.618;2024-03-22T08:21:57;5.68;;;2.50;;
74415;SDS011;62850;42.428;25.618;2024-03-22T08:24:24;7.32;;;2.55;;
74415;SDS011;62850;42.428;25.618;2024-03-22T08:26:49;6.25;;;2.40;;
74415;SDS011;62850;42.428;25.618;2024-03-22T08:29:15;5.93;;;2.45;;
74415;SDS011;62850;42.428;25.618;2024-03-22T08:31:41;4.90;;;2.17;;
74415;SDS011;62850;42.428;25.618;2024-03-22T08:34:07;4.70;;;2.33;;
74415;SDS011;62850;42.428;25.618;2024-03-22T08:36:33;5.38;;;2.55;;
74415;SDS011;62850;42.428;25.618;2024-03-22T08:38:59;5.28;;;2.30;;
74415;SDS011;62850;42.428;25.618;2024-03-22T08:41:25;6.88;;;2.20;;
74415;SDS011;62850;42.428;25.618;2024-03-22T08:43:50;5.53;;;2.25;;
74415;SDS011;62850;42.428;25.618;2024-03-22T08:46:16;4.95;;;2.10;;
74415;SDS011;62850;42.428;25.618;2024-03-22T08:48:41;6.90;;;2.42;;
74415;SDS011;62850;42.428;25.618;2024-03-22T08:51:06;4.32;;;1.90;;
74415;SDS011;62850;42.428;25.618;2024-03-22T08:53:32;5.18;;;2.50;;
74415;SDS011;62850;42.428;25.618;2024-03-22T08:55:58;7.63;;;2.70;;
74415;SDS011;62850;42.428;25.618;2024-03-22T08:58:24;5.15;;;2.33;;
74415;SDS011;62850;42.428;25.618;2024-03-22T09:00:49;4.82;;;2.33;;
74415;SDS011;62850;42.428;25.618;2024-03-22T09:03:15;7.00;;;2.30;;
74415;SDS011;62850;42.428;25.618;2024-03-22T09:05:40;6.20;;;2.40;;
74415;SDS011;62850;42.428;25.618;2024-03-22T09:08:06;4.80;;;2.47;;
74415;SDS011;62850;42.428;25.618;2024-03-22T09:10:31;7.78;;;2.22;;
74415;SDS011;62850;42.428;25.618;2024-03-22T09:12:57;4.47;;;2.10;;
74415;SDS011;62850;42.428;25.618;2024-03-22T09:15:22;5.43;;;2.22;;
74415;SDS011;62850;42.428;25.618;2024-03-22T09:17:49;8.70;;;2.33;;
74415;SDS011;62850;42.428;25.618;2024-03-22T09:20:15;5.07;;;2.65;;
74415;SDS011;62850;42.428;25.618;2024-03-22T09:22:40;4.63;;;2.00;;
74415;SDS011;62850;42.428;25.618;2024-03-22T09:25:06;5.60;;;2.60;;
74415;SDS011;62850;42.428;25.618;2024-03-22T09:27:32;5.05;;;2.40;;
74415;SDS011;62850;42.428;25.618;2024-03-22T09:29:58;4.65;;;2.40;;
74415;SDS011;62850;42.428;25.618;2024-03-22T09:32:23;4.95;;;2.38;;
74415;SDS011;62850;42.428;25.618;2024-03-22T09:34:49;5.43;;;2.53;;
74415;SDS011;62850;42.428;25.618;2024-03-22T09:37:15;5.65;;;2.58;;
74415;SDS011;62850;42.428;25.618;2024-03-22T09:39:40;5.30;;;2.58;;
74415;SDS011;62850;42.428;25.618;2024-03-22T09:42:06;6.22;;;2.65;;
74415;SDS011;62850;42.428;25.618;2024-03-22T09:44:32;7.65;;;2.30;;
74415;SDS011;62850;42.428;25.618;2024-03-22T09:46:58;4.90;;;2.40;;
74415;SDS011;62850;42.428;25.618;2024-03-22T09:49:26;5.47;;;2.35;;
74415;SDS011;62850;42.428;25.618;2024-03-22T09:51:52;3.97;;;1.70;;
74415;SDS011;62850;42.428;25.618;2024-03-22T09:54:18;4.45;;;2.15;;
74415;SDS011;62850;42.428;25.618;2024-03-22T09:56:43;4.20;;;2.03;;
74415;SDS011;62850;42.428;25.618;2024-03-22T09:59:09;5.18;;;2.00;;
74415;SDS011;62850;42.428;25.618;2024-03-22T10:01:38;3.53;;;1.85;;
74415;SDS011;62850;42.428;25.618;2024-03-22T10:04:05;5.00;;;2.17;;
74415;SDS011;62850;42.428;25.618;2024-03-22T10:06:30;4.57;;;2.05;;
74415;SDS011;62850;42.428;25.618;2024-03-22T10:09:00;4.25;;;2.10;;
74415;SDS011;62850;42.428;25.618;2024-03-22T10:11:26;4.18;;;2.00;;
74415;SDS011;62850;42.428;25.618;2024-03-22T10:13:52;3.63;;;1.90;;
74415;SDS011;62850;42.428;25.618;2024-03-22T10:16:20;4.88;;;2.08;;
74415;SDS011;62850;42.428;25.618;2024-03-22T10:18:46;4.72;;;2.10;;
74415;SDS011;62850;42.428;25.618;2024-03-22T10:21:16;4.53;;;2.20;;
74415;SDS011;62850;42.428;25.618;2024-03-22T10:23:43;4.57;;;2.20;;
74415;SDS011;62850;42.428;25.618;2024-03-22T10:26:09;4.78;;;1.80;;
74415;SDS011;62850;42.428;25.618;2024-03-22T10:28:35;3.88;;;1.88;;
74415;SDS011;62850;42.428;25.618;2024-03-22T10:31:01;5.00;;;1.70;;
74415;SDS011;62850;42.428;25.618;2024-03-22T10:33:27;4.97;;;2.47;;
74415;SDS011;62850;42.428;25.618;2024-03-22T10:35:54;5.18;;;1.90;;
74415;SDS011;62850;42.428;25.618;2024-03-22T10:38:20;4.50;;;2.00;;
74415;SDS011;62850;42.428;25.618;2024-03-22T10:40:46;3.85;;;1.90;;
74415;SDS011;62850;42.428;25.618;2024-03-22T10:43:15;5.13;;;1.80;;
74415;SDS011;62850;42.428;25.618;2024-03-22T10:45:41;4.28;;;1.70;;
74415;SDS011;62850;42.428;25.618;2024-03-22T10:48:11;3.38;;;1.83;;
74415;SDS011;62850;42.428;25.618;2024-03-22T10:50:40;5.25;;;2.67;;
74415;SDS011;62850;42.428;25.618;2024-03-22T10:53:17;8.02;;;2.50;;
74415;SDS011;62850;42.428;25.618;2024-03-22T10:55:46;6.95;;;2.60;;
74415;SDS011;62850;42.428;25.618;2024-03-22T10:58:14;4.68;;;2.03;;
74415;SDS011;62850;42.428;25.618;2024-03-22T11:00:43;5.18;;;1.90;;
74415;SDS011;62850;42.428;25.618;2024-03-22T11:03:08;4.32;;;2.00;;
74415;SDS011;62850;42.428;25.618;2024-03-22T11:05:34;4.68;;;1.77;;
74415;SDS011;62850;42.428;25.618;2024-03-22T11:08:02;5.13;;;2.13;;
74415;SDS011;62850;42.428;25.618;2024-03-22T11:10:30;7.40;;;2.03;;
74415;SDS011;62850;42.428;25.618;2024-03-22T11:13:00;4.93;;;2.03;;
74415;SDS011;62850;42.428;25.618;2024-03-22T11:15:30;3.95;;;1.70;;
74415;SDS011;62850;42.428;25.618;2024-03-22T11:17:56;8.77;;;2.35;;
74415;SDS011;62850;42.428;25.618;2024-03-22T11:20:22;5.55;;;1.83;;
74415;SDS011;62850;42.428;25.618;2024-03-22T11:22:49;4.38;;;1.73;;
74415;SDS011;62850;42.428;25.618;2024-03-22T11:25:16;4.10;;;1.80;;
74415;SDS011;62850;42.428;25.618;2024-03-22T11:27:41;2.55;;;1.20;;
74415;SDS011;62850;42.428;25.618;2024-03-22T11:30:07;2.40;;;1.20;;
74415;SDS011;62850;42.428;25.618;2024-03-22T11:32:33;2.42;;;1.13;;
74415;SDS011;62850;42.428;25.618;2024-03-22T11:35:07;2.90;;;1.10;;
74415;SDS011;62850;42.428;25.618;2024-03-22T11:37:34;2.67;;;1.17;;
74415;SDS011;62850;42.428;25.618;2024-03-22T11:39:59;2.47;;;1.02;;
74415;SDS011;62850;42.428;25.618;2024-03-22T11:42:25;2.22;;;0.98;;
74415;SDS011;62850;42.428;25.618;2024-03-22T11:44:50;3.42;;;1.10;;
74415;SDS011;62850;42.428;25.618;2024-03-22T11:47:16;2.60;;;1.02;;
74415;SDS011;62850;42.428;25.618;2024-03-22T11:49:41;2.60;;;1.00;;
74415;SDS011;62850;42.428;25.618;2024-03-22T11:52:07;2.40;;;1.00;;
74415;SDS011;62850;42.428;25.618;2024-03-22T11:54:33;2.10;;;1.10;;
74415;SDS011;62850;42.428;25.618;2024-03-22T11:56:59;2.50;;;1.20;;
74415;SDS011;62850;42.428;25.618;2024-03-22T11:59:24;3.35;;;1.17;;
74415;SDS011;62850;42.428;25.618;2024-03-22T12:01:50;3.08;;;1.08;;
74415;SDS011;62850;42.428;25.618;2024-03-22T12:04:15;2.92;;;1.10;;
74415;SDS011;62850;42.428;25.618;2024-03-22T12:06:42;2.13;;;1.00;;
74415;SDS011;62850;42.428;25.618;2024-03-22T12:09:08;2.72;;;1.02;;
74415;SDS011;62850;42.428;25.618;2024-03-22T12:11:36;2.53;;;1.10;;
74415;SDS011;62850;42.428;25.618;2024-03-22T12:14:01;4.72;;;1.48;;
74415;SDS011;62850;42.428;25.618;2024-03-22T12:16:27;5.35;;;1.90;;
74415;SDS011;62850;42.428;25.618;2024-03-22T12:18:52;7.28;;;3.30;;
74415;SDS011;62850;42.428;25.618;2024-03-22T12:21:18;4.82;;;2.03;;
74415;SDS011;62850;42.428;25.618;2024-03-22T12:23:43;3.55;;;1.85;;
74415;SDS011;62850;42.428;25.618;2024-03-22T12:26:08;5.00;;;2.08;;
74415;SDS011;62850;42.428;25.618;2024-03-22T12:28:34;4.30;;;1.58;;
74415;SDS011;62850;42.428;25.618;2024-03-22T12:30:59;3.10;;;1.40;;
74415;SDS011;62850;42.428;25.618;2024-03-22T12:33:25;4.25;;;1.50;;
74415;SDS011;62850;42.428;25.618;2024-03-22T12:35:51;4.03;;;1.73;;
74415;SDS011;62850;42.428;25.618;2024-03-22T12:38:18;6.63;;;2.50;;
74415;SDS011;62850;42.428;25.618;2024-03-22T12:40:43;4.35;;;1.55;;
74415;SDS011;62850;42.428;25.618;2024-03-22T12:43:09;5.05;;;1.50;;
74415;SDS011;62850;42.428;25.618;2024-03-22T12:45:36;3.38;;;1.58;;
74415;SDS011;62850;42.428;25.618;2024-03-22T12:48:01;4.43;;;1.83;;
74415;SDS011;62850;42.428;25.618;2024-03-22T12:50:27;4.13;;;1.70;;
74415;SDS011;62850;42.428;25.618;2024-03-22T12:52:52;24.58;;;3.75;;
74415;SDS011;62850;42.428;25.618;2024-03-22T12:55:18;26.35;;;4.25;;
74415;SDS011;62850;42.428;25.618;2024-03-22T12:57:43;6.03;;;1.73;;
74415;SDS011;62850;42.428;25.618;2024-03-22T13:00:09;4.57;;;1.67;;
74415;SDS011;62850;42.428;25.618;2024-03-22T13:02:43;4.57;;;1.80;;
74415;SDS011;62850;42.428;25.618;2024-03-22T13:05:10;3.65;;;1.50;;
74415;SDS011;62850;42.428;25.618;2024-03-22T13:07:35;3.40;;;1.63;;
74415;SDS011;62850;42.428;25.618;2024-03-22T13:10:02;3.70;;;1.63;;
74415;SDS011;62850;42.428;25.618;2024-03-22T13:12:28;3.67;;;1.58;;
74415;SDS011;62850;42.428;25.618;2024-03-22T13:14:56;4.65;;;2.20;;
74415;SDS011;62850;42.428;25.618;2024-03-22T13:17:21;5.78;;;1.92;;
74415;SDS011;62850;42.428;25.618;2024-03-22T13:19:47;5.93;;;2.75;;
74415;SDS011;62850;42.428;25.618;2024-03-22T13:22:12;3.05;;;1.33;;
74415;SDS011;62850;42.428;25.618;2024-03-22T13:24:38;4.45;;;1.67;;
74415;SDS011;62850;42.428;25.618;2024-03-22T13:27:03;3.63;;;1.60;;
74415;SDS011;62850;42.428;25.618;2024-03-22T13:29:29;6.78;;;1.73;;
74415;SDS011;62850;42.428;25.618;2024-03-22T13:31:54;3.50;;;1.55;;
74415;SDS011;62850;42.428;25.618;2024-03-22T13:34:20;3.45;;;1.50;;
74415;SDS011;62850;42.428;25.618;2024-03-22T13:36:45;4.40;;;1.90;;
74415;SDS011;62850;42.428;25.618;2024-03-22T13:39:12;3.83;;;1.83;;
74415;SDS011;62850;42.428;25.618;2024-03-22T13:41:40;4.28;;;2.30;;
74415;SDS011;62850;42.428;25.618;2024-03-22T13:44:06;5.05;;;2.10;;
74415;SDS011;62850;42.428;25.618;2024-03-22T13:46:33;6.78;;;1.50;;
74415;SDS011;62850;42.428;25.618;2024-03-22T13:49:01;4.28;;;1.65;;
74415;SDS011;62850;42.428;25.618;2024-03-22T13:51:28;3.75;;;1.50;;
74415;SDS011;62850;42.428;25.618;2024-03-22T13:53:54;3.72;;;1.48;;
74415;SDS011;62850;42.428;25.618;2024-03-22T13:56:20;4.50;;;1.50;;
74415;SDS011;62850;42.428;25.618;2024-03-22T13:58:46;6.38;;;2.67;;
74415;SDS011;62850;42.428;25.618;2024-03-22T14:01:11;5.68;;;2.63;;
74415;SDS011;62850;42.428;25.618;2024-03-22T14:03:37;3.47;;;1.40;;
74415;SDS011;62850;42.428;25.618;2024-03-22T14:06:02;3.92;;;1.30;;
74415;SDS011;62850;42.428;25.618;2024-03-22T14:08:28;4.20;;;1.60;;
74415;SDS011;62850;42.428;25.618;2024-03-22T14:10:54;3.67;;;1.60;;
74415;SDS011;62850;42.428;25.618;2024-03-22T14:13:19;4.10;;;1.48;;
74415;SDS011;62850;42.428;25.618;2024-03-22T14:15:45;4.47;;;1.55;;
74415;SDS011;62850;42.428;25.618;2024-03-22T14:18:10;3.97;;;1.55;;
74415;SDS011;62850;42.428;25.618;2024-03-22T14:20:36;3.17;;;1.58;;
74415;SDS011;62850;42.428;25.618;2024-03-22T14:23:01;5.95;;;2.08;;
74415;SDS011;62850;42.428;25.618;2024-03-22T14:25:27;3.95;;;1.65;;
74415;SDS011;62850;42.428;25.618;2024-03-22T14:27:53;3.25;;;1.40;;